createdAt,value
2022-09-10T00:01:30.017Z,99992.63
2022-09-10T00:03:56.851Z,99988.00
2022-09-10T00:06:27.867Z,99987.28
2022-09-10T00:08:57.727Z,99997.06
2022-09-10T00:11:31.121Z,99997.25
2022-09-10T00:13:59.749Z,100001.91
2022-09-10T00:16:27.650Z,99998.50
2022-09-10T00:18:54.274Z,99998.06
2022-09-10T00:21:21.710Z,99999.53
2022-09-10T00:23:48.786Z,99983.38
2022-09-10T00:26:27.491Z,99982.94
2022-09-10T00:28:56.351Z,99988.41
2022-09-10T00:31:24.077Z,99991.78
2022-09-10T00:33:51.307Z,99986.53
2022-09-10T00:36:24.176Z,99978.16
2022-09-10T00:38:53.347Z,99975.69
2022-09-10T00:41:22.481Z,99975.72
2022-09-10T00:44:00.612Z,99979.91
2022-09-10T00:46:33.550Z,99984.53
2022-09-10T00:49:03.714Z,99975.25
2022-09-10T00:51:33.590Z,99977.16
2022-09-10T00:54:01.004Z,99972.09
2022-09-10T00:56:28.905Z,99970.22
2022-09-10T00:58:56.043Z,99960.34
2022-09-10T01:01:23.191Z,99960.75
2022-09-10T01:03:50.696Z,99962.38
2022-09-10T01:06:18.418Z,99954.19
2022-09-10T01:08:44.923Z,99953.69
2022-09-10T01:11:34.989Z,99954.31
2022-09-10T01:14:38.169Z,99949.03
2022-09-10T01:17:34.395Z,99942.16
2022-09-10T01:20:35.058Z,99949.28
2022-09-10T01:23:19.704Z,99944.22
2022-09-10T01:25:46.114Z,99946.06
2022-09-10T01:28:25.414Z,99939.72
2022-09-10T01:30:59.299Z,99937.41
2022-09-10T01:33:30.950Z,99931.13
2022-09-10T01:36:02.245Z,99925.47
2022-09-10T01:38:32.486Z,99920.78
2022-09-10T01:40:59.454Z,99911.06
2022-09-10T01:43:26.009Z,99905.63
2022-09-10T01:45:52.515Z,99898.50
2022-09-10T01:48:45.449Z,99889.94
2022-09-10T01:51:35.075Z,99898.44
2022-09-10T01:54:29.431Z,99910.31
2022-09-10T01:57:22.222Z,99920.31
2022-09-10T02:00:09.330Z,99906.25
2022-09-10T02:02:44.222Z,99885.97
2022-09-10T02:05:12.350Z,99880.13
2022-09-10T02:07:39.558Z,99874.03
2022-09-10T02:10:09.121Z,99881.75
2022-09-10T02:12:36.804Z,99886.16
2022-09-10T02:15:05.298Z,99882.81
2022-09-10T02:17:35.796Z,99881.13
2022-09-10T02:20:04.288Z,99878.41
2022-09-10T02:22:33.852Z,99886.75
2022-09-10T02:25:00.402Z,99881.44
2022-09-10T02:27:29.995Z,99888.31
2022-09-10T02:29:59.629Z,99887.41
2022-09-10T02:32:27.160Z,99890.72
2022-09-10T02:34:53.658Z,99888.19
2022-09-10T02:37:20.233Z,99875.25
2022-09-10T02:39:46.829Z,99871.47
2022-09-10T02:42:16.950Z,99867.91
2022-09-10T02:44:44.824Z,99872.34
2022-09-10T02:47:11.338Z,99871.47
2022-09-10T02:49:37.819Z,99865.41
2022-09-10T02:52:04.637Z,99874.53
2022-09-10T02:54:31.165Z,99878.03
2022-09-10T02:56:57.643Z,99872.91
2022-09-10T02:59:25.135Z,99877.69
2022-09-10T03:01:51.962Z,99885.66
2022-09-10T03:04:18.510Z,99892.41
2022-09-10T03:06:45.282Z,99888.25
2022-09-10T03:09:11.760Z,99898.41
2022-09-10T03:11:40.662Z,99879.19
2022-09-10T03:14:10.266Z,99875.63
2022-09-10T03:16:36.844Z,99876.91
2022-09-10T03:19:03.575Z,99878.53
2022-09-10T03:21:30.150Z,99879.69
2022-09-10T03:23:57.324Z,99881.28
2022-09-10T03:26:27.958Z,99884.44
2022-09-10T03:28:54.470Z,99875.63
2022-09-10T03:31:21.742Z,99873.13
2022-09-10T03:33:49.176Z,99869.28
2022-09-10T03:36:15.830Z,99872.19
2022-09-10T03:38:42.760Z,99873.03
2022-09-10T03:41:09.772Z,99863.38
2022-09-10T03:43:36.346Z,99864.88
2022-09-10T03:46:03.278Z,99860.84
2022-09-10T03:48:29.992Z,99861.88
2022-09-10T03:50:56.781Z,99869.84
2022-09-10T03:53:23.908Z,99870.50
2022-09-10T03:55:51.856Z,99872.00
2022-09-10T03:58:19.227Z,99865.75
2022-09-10T04:00:46.550Z,99866.38
2022-09-10T04:03:14.558Z,99868.44
2022-09-10T04:05:44.100Z,99871.94
2022-09-10T04:08:12.220Z,99866.59
2022-09-10T04:10:39.902Z,99883.09
2022-09-10T04:13:07.140Z,99872.88
2022-09-10T04:15:34.375Z,99876.91
2022-09-10T04:18:01.076Z,99874.00
2022-09-10T04:20:27.745Z,99891.22
2022-09-10T04:22:55.101Z,99894.78
2022-09-10T04:25:21.647Z,99894.78
2022-09-10T04:27:49.040Z,99883.72
2022-09-10T04:30:15.883Z,99896.66
2022-09-10T04:32:42.819Z,99897.91
2022-09-10T04:35:09.624Z,99900.22
2022-09-10T04:37:36.114Z,99899.38
2022-09-10T04:40:03.715Z,99904.63
2022-09-10T04:42:31.883Z,99897.31
2022-09-10T04:44:59.222Z,99898.09
2022-09-10T04:47:26.188Z,99892.66
2022-09-10T04:49:52.737Z,99896.66
2022-09-10T04:52:22.694Z,99894.31
2022-09-10T04:54:49.475Z,99899.38
2022-09-10T04:57:16.091Z,99897.97
2022-09-10T04:59:42.808Z,99891.31
2022-09-10T05:02:09.376Z,99884.38
2022-09-10T05:04:36.176Z,99893.56
2022-09-10T05:07:02.685Z,99900.69
2022-09-10T05:09:31.323Z,99902.34
2022-09-10T05:11:58.222Z,99886.91
2022-09-10T05:14:25.500Z,99892.59
2022-09-10T05:16:52.493Z,99898.88
2022-09-10T05:19:21.398Z,99900.63
2022-09-10T05:21:48.534Z,99888.22
2022-09-10T05:24:15.571Z,99897.59
2022-09-10T05:26:42.677Z,99894.66
2022-09-10T05:29:11.310Z,99891.75
2022-09-10T05:31:37.926Z,99906.97
2022-09-10T05:34:04.571Z,99905.56
2022-09-10T05:36:32.088Z,99903.06
2022-09-10T05:39:00.288Z,99899.56
2022-09-10T05:41:28.144Z,99905.72
2022-09-10T05:43:55.056Z,99903.72
2022-09-10T05:46:22.347Z,99906.25
2022-09-10T05:48:49.090Z,99912.81
2022-09-10T05:51:15.932Z,99911.00
2022-09-10T05:53:42.393Z,99910.22
2022-09-10T05:56:09.284Z,99913.38
2022-09-10T05:58:35.840Z,99903.00
2022-09-10T06:01:02.467Z,99913.38
2022-09-10T06:03:28.992Z,99892.66
2022-09-10T06:05:55.714Z,99906.97
2022-09-10T06:08:22.774Z,99911.44
2022-09-10T06:10:57.355Z,99899.50
2022-09-10T06:13:24.956Z,99911.94
2022-09-10T06:15:51.886Z,99895.47
2022-09-10T06:18:19.219Z,99894.72
2022-09-10T06:20:47.791Z,99887.03
2022-09-10T06:23:16.586Z,99895.69
2022-09-10T06:25:43.445Z,99888.94
2022-09-10T06:28:12.188Z,99892.91
2022-09-10T06:30:39.411Z,99893.16
2022-09-10T06:33:06.039Z,99889.56
2022-09-10T06:35:33.311Z,99890.63
2022-09-10T06:37:59.799Z,99889.16
2022-09-10T06:40:29.663Z,99896.25
2022-09-10T06:42:56.238Z,99900.84
2022-09-10T06:45:22.732Z,99893.06
2022-09-10T06:48:37.001Z,99900.59
2022-09-10T06:50:36.944Z,99905.41
2022-09-10T06:53:03.622Z,99907.94
2022-09-10T06:55:30.164Z,99918.84
2022-09-10T06:57:59.580Z,99913.34
2022-09-10T07:00:26.043Z,99919.84
2022-09-10T07:02:52.944Z,99921.31
2022-09-10T07:05:19.445Z,99920.06
2022-09-10T07:07:46.376Z,99923.47
2022-09-10T07:10:12.879Z,99923.22
2022-09-10T07:12:39.367Z,99930.38
2022-09-10T07:15:06.246Z,99933.31
2022-09-10T07:17:35.649Z,99937.34
2022-09-10T07:20:02.927Z,99940.94
2022-09-10T07:22:29.419Z,99940.19
2022-09-10T07:24:56.098Z,99949.81
2022-09-10T07:27:22.698Z,99951.13
2022-09-10T07:29:49.595Z,99953.19
2022-09-10T07:32:16.223Z,99955.88
2022-09-10T07:34:43.125Z,99952.91
2022-09-10T07:37:09.690Z,99957.66
2022-09-10T07:39:36.223Z,99968.88
2022-09-10T07:42:02.758Z,99965.19
2022-09-10T07:44:29.365Z,99972.38
2022-09-10T07:46:55.982Z,99967.25
2022-09-10T07:49:22.445Z,99970.94
2022-09-10T07:51:49.210Z,99979.19
2022-09-10T07:54:17.305Z,99987.88
2022-09-10T07:56:44.185Z,99989.75
2022-09-10T07:59:11.685Z,99993.31
2022-09-10T08:01:38.207Z,99983.53
2022-09-10T08:04:06.237Z,99988.22
2022-09-10T08:06:34.010Z,99981.69
2022-09-10T08:09:00.479Z,99992.31
2022-09-10T08:11:27.040Z,99982.47
2022-09-10T08:13:54.519Z,99991.94
2022-09-10T08:16:23.610Z,99999.00
2022-09-10T08:18:51.389Z,99996.22
2022-09-10T08:21:19.368Z,99994.03
2022-09-10T08:23:51.059Z,99990.97
2022-09-10T08:26:18.099Z,99990.50
2022-09-10T08:28:44.665Z,99991.69
2022-09-10T08:31:12.825Z,99980.88
2022-09-10T08:33:40.187Z,99978.47
2022-09-10T08:36:10.484Z,99983.34
2022-09-10T08:38:39.851Z,99988.22
2022-09-10T08:41:13.433Z,99987.78
2022-09-10T08:43:41.807Z,99994.97
2022-09-10T08:46:22.634Z,99986.16
2022-09-10T08:49:00.598Z,99988.69
2022-09-10T08:51:34.306Z,99994.59
2022-09-10T08:54:10.194Z,99981.13
2022-09-10T08:56:37.987Z,99978.41
2022-09-10T08:59:33.352Z,99985.78
2022-09-10T09:02:37.827Z,99988.53
2022-09-10T09:05:09.589Z,99986.84
2022-09-10T09:07:40.265Z,99995.03
2022-09-10T09:10:42.682Z,99995.44
2022-09-10T09:13:32.178Z,100004.47
2022-09-10T09:16:28.799Z,99996.06
2022-09-10T09:19:14.708Z,100002.81
2022-09-10T09:21:54.679Z,99998.38
2022-09-10T09:24:40.447Z,99997.75
2022-09-10T09:27:13.968Z,99998.13
2022-09-10T09:29:48.247Z,100004.44
2022-09-10T09:32:17.223Z,100008.25
2022-09-10T09:34:50.526Z,100002.56
2022-09-10T09:37:21.418Z,100004.28
2022-09-10T09:39:59.400Z,99991.88
2022-09-10T09:42:39.843Z,99996.97
2022-09-10T09:45:28.424Z,99998.66
2022-09-10T09:47:55.900Z,99993.84
2022-09-10T09:50:23.053Z,99991.72
2022-09-10T09:52:55.141Z,99986.88
2022-09-10T09:55:33.618Z,99987.72
2022-09-10T09:58:21.622Z,99979.06
2022-09-10T10:01:13.231Z,99973.34
2022-09-10T10:03:48.548Z,99970.81
2022-09-10T10:06:16.354Z,99963.84
2022-09-10T10:08:46.050Z,99954.16
2022-09-10T10:11:17.264Z,99950.13
2022-09-10T10:13:48.099Z,99943.78
2022-09-10T10:16:14.604Z,99947.13
2022-09-10T10:18:43.043Z,99943.72
2022-09-10T10:21:28.030Z,99952.09
2022-09-10T10:23:54.868Z,99955.63
2022-09-10T10:26:21.305Z,99946.06
2022-09-10T10:28:53.986Z,99941.16
2022-09-10T10:31:21.102Z,99941.97
2022-09-10T10:34:09.637Z,99942.06
2022-09-10T10:37:03.614Z,99941.28
2022-09-10T10:39:48.568Z,99934.63
2022-09-10T10:42:30.662Z,99931.94
2022-09-10T10:45:16.706Z,99926.19
2022-09-10T10:48:03.238Z,99921.19
2022-09-10T10:51:03.380Z,99929.72
2022-09-10T10:54:10.753Z,99922.06
2022-09-10T10:56:59.935Z,99922.19
2022-09-10T10:59:47.583Z,99926.03
2022-09-10T11:02:19.911Z,99926.78
2022-09-10T11:04:53.187Z,99924.59
2022-09-10T11:07:29.651Z,99925.44
2022-09-10T11:10:23.578Z,99937.88
2022-09-10T11:13:22.198Z,99928.09
2022-09-10T11:15:59.524Z,99939.16
2022-09-10T11:18:34.271Z,99930.16
2022-09-10T11:21:20.958Z,99919.75
2022-09-10T11:24:00.501Z,99913.84
2022-09-10T11:26:41.563Z,99911.94
2022-09-10T11:29:32.250Z,99922.88
2022-09-10T11:32:01.841Z,99922.28
2022-09-10T11:34:35.468Z,99912.06
2022-09-10T11:37:20.031Z,99916.81
2022-09-10T11:39:52.452Z,99923.75
2022-09-10T11:42:34.093Z,99920.28
2022-09-10T11:45:36.729Z,99918.78
2022-09-10T11:48:11.426Z,99921.69
2022-09-10T11:50:46.715Z,99925.34
2022-09-10T11:53:16.290Z,99913.41
2022-09-10T11:56:05.058Z,99914.13
2022-09-10T11:59:08.757Z,99905.03
2022-09-10T12:02:10.669Z,99916.13
2022-09-10T12:05:14.519Z,99919.44
2022-09-10T12:07:53.840Z,99922.59
2022-09-10T12:10:31.552Z,99922.88
2022-09-10T12:12:58.895Z,99927.94
2022-09-10T12:15:37.157Z,99910.38
2022-09-10T12:18:13.936Z,99907.66
2022-09-10T12:20:52.072Z,99918.56
2022-09-10T12:23:28.118Z,99910.16
2022-09-10T12:26:08.842Z,99904.97
2022-09-10T12:28:41.747Z,99907.78
2022-09-10T12:31:10.103Z,99898.34
2022-09-10T12:34:09.094Z,99912.72
2022-09-10T12:36:35.493Z,99910.28
2022-09-10T12:39:25.855Z,99908.03
2022-09-10T12:41:53.097Z,99900.22
2022-09-10T12:44:25.367Z,99904.00
2022-09-10T12:47:13.755Z,99895.78
2022-09-10T12:50:01.170Z,99911.34
2022-09-10T12:52:35.078Z,99892.47
2022-09-10T12:55:28.944Z,99908.09
2022-09-10T12:58:32.794Z,99896.44
2022-09-10T13:01:11.128Z,99896.38
2022-09-10T13:03:54.938Z,99897.75
2022-09-10T13:06:35.871Z,99904.53
2022-09-10T13:09:05.819Z,99907.13
2022-09-10T13:11:35.772Z,99897.31
2022-09-10T13:14:06.199Z,99898.81
2022-09-10T13:16:32.855Z,99893.84
2022-09-10T13:19:14.576Z,99909.41
2022-09-10T13:21:41.039Z,99889.00
2022-09-10T13:24:35.700Z,99885.25
2022-09-10T13:27:17.375Z,99873.59
2022-09-10T13:29:47.171Z,99909.34
2022-09-10T13:32:37.543Z,99882.19
2022-09-10T13:35:17.076Z,99871.03
2022-09-10T13:37:59.365Z,99880.91
2022-09-10T13:40:38.693Z,99882.41
2022-09-10T13:43:05.481Z,99882.00
2022-09-10T13:45:46.852Z,99892.50
2022-09-10T13:48:23.859Z,99890.03
2022-09-10T13:51:15.302Z,99896.16
2022-09-10T13:53:46.956Z,99893.84
2022-09-10T13:56:19.197Z,99883.41
2022-09-10T13:58:52.153Z,99882.16
2022-09-10T14:01:18.779Z,99878.41
2022-09-10T14:03:45.501Z,99863.00
2022-09-10T14:06:18.795Z,99871.75
2022-09-10T14:08:50.514Z,99867.94
2022-09-10T14:11:25.194Z,99862.25
2022-09-10T14:14:06.352Z,99867.31
2022-09-10T14:16:55.410Z,99876.84
2022-09-10T14:19:21.851Z,99868.28
2022-09-10T14:21:50.074Z,99869.72
2022-09-10T14:24:30.617Z,99870.97
2022-09-10T14:27:15.634Z,99865.97
2022-09-10T14:29:42.963Z,99868.19
2022-09-10T14:32:26.495Z,99857.91
2022-09-10T14:34:53.036Z,99870.66
2022-09-10T14:37:39.562Z,99874.88
2022-09-10T14:40:20.875Z,99874.13
2022-09-10T14:42:49.490Z,99870.81
2022-09-10T14:45:42.511Z,99864.78
2022-09-10T14:48:29.518Z,99873.91
2022-09-10T14:51:12.827Z,99865.13
2022-09-10T14:53:40.893Z,99860.53
2022-09-10T14:56:22.350Z,99867.38
2022-09-10T14:59:05.955Z,99860.00
2022-09-10T15:01:32.717Z,99853.81
2022-09-10T15:04:02.074Z,99865.69
2022-09-10T15:06:28.730Z,99859.31
2022-09-10T15:08:58.330Z,99867.97
2022-09-10T15:11:28.179Z,99869.03
2022-09-10T15:13:56.112Z,99868.44
2022-09-10T15:16:25.826Z,99878.34
2022-09-10T15:18:52.313Z,99868.28
2022-09-10T15:21:19.394Z,99868.06
2022-09-10T15:23:48.256Z,99872.25
2022-09-10T15:26:15.215Z,99871.75
2022-09-10T15:28:42.054Z,99879.09
2022-09-10T15:31:09.244Z,99888.72
2022-09-10T15:33:36.179Z,99888.47
2022-09-10T15:36:03.340Z,99881.84
2022-09-10T15:38:29.914Z,99881.03
2022-09-10T15:41:08.347Z,99894.94
2022-09-10T15:43:38.833Z,99894.31
2022-09-10T15:46:06.611Z,99894.59
2022-09-10T15:48:33.654Z,99897.38
2022-09-10T15:51:02.767Z,99902.22
2022-09-10T15:53:32.838Z,99915.56
2022-09-10T15:56:05.393Z,99908.63
2022-09-10T15:58:32.002Z,99925.63
2022-09-10T16:01:07.488Z,99920.16
2022-09-10T16:03:34.835Z,99929.50
2022-09-10T16:06:03.271Z,99928.59
2022-09-10T16:08:30.731Z,99935.66
2022-09-10T16:10:57.911Z,99941.28
2022-09-10T16:13:26.004Z,99940.81
2022-09-10T16:16:03.363Z,99951.94
2022-09-10T16:18:31.776Z,99951.56
2022-09-10T16:21:18.485Z,99948.53
2022-09-10T16:23:49.227Z,99951.75
2022-09-10T16:26:19.906Z,99957.75
2022-09-10T16:29:14.107Z,99947.72
2022-09-10T16:31:41.075Z,99952.84
2022-09-10T16:34:10.939Z,99952.47
2022-09-10T16:36:39.202Z,99955.56
2022-09-10T16:39:12.306Z,99955.06
2022-09-10T16:41:40.355Z,99953.72
2022-09-10T16:44:07.222Z,99956.25
2022-09-10T16:46:34.366Z,99951.84
2022-09-10T16:49:01.549Z,99953.44
2022-09-10T16:51:28.870Z,99948.19
2022-09-10T16:54:06.363Z,99955.94
2022-09-10T16:56:40.013Z,99951.00
2022-09-10T16:59:08.818Z,99955.16
2022-09-10T17:01:36.642Z,99956.16
2022-09-10T17:04:04.662Z,99963.03
2022-09-10T17:06:31.795Z,99964.31
2022-09-10T17:09:00.590Z,99951.66
2022-09-10T17:11:32.738Z,99965.69
2022-09-10T17:14:03.057Z,99967.88
2022-09-10T17:16:37.754Z,99975.22
2022-09-10T17:19:16.231Z,99967.94
2022-09-10T17:21:44.928Z,99974.88
2022-09-10T17:24:13.214Z,99978.13
2022-09-10T17:26:41.283Z,99980.94
2022-09-10T17:29:18.901Z,99983.56
2022-09-10T17:31:49.383Z,99989.72
2022-09-10T17:34:16.518Z,99996.75
2022-09-10T17:36:45.417Z,99996.03
2022-09-10T17:39:13.000Z,99997.31
2022-09-10T17:41:40.491Z,99995.50
2022-09-10T17:44:08.133Z,100000.41
2022-09-10T17:46:36.075Z,100004.63
2022-09-10T17:49:03.832Z,100003.34
2022-09-10T17:51:32.686Z,100011.16
2022-09-10T17:53:59.446Z,100021.09
2022-09-10T17:56:27.019Z,100027.22
2022-09-10T17:58:58.468Z,100029.72
2022-09-10T18:01:27.586Z,100033.31
2022-09-10T18:03:54.815Z,100046.59
2022-09-10T18:06:22.151Z,100045.34
2022-09-10T18:08:50.428Z,100044.91
2022-09-10T18:11:22.714Z,100056.09
2022-09-10T18:13:52.146Z,100056.06
2022-09-10T18:16:22.271Z,100061.53
2022-09-10T18:19:01.037Z,100065.09
2022-09-10T18:21:31.310Z,100072.25
2022-09-10T18:24:00.527Z,100070.50
2022-09-10T18:26:29.361Z,100071.06
2022-09-10T18:28:57.600Z,100072.75
2022-09-10T18:31:25.029Z,100076.97
2022-09-10T18:33:53.576Z,100078.13
2022-09-10T18:36:20.586Z,100078.13
2022-09-10T18:38:47.421Z,100077.50
2022-09-10T18:41:36.010Z,100075.56
2022-09-10T18:44:04.408Z,100076.78
2022-09-10T18:46:32.987Z,100076.06
2022-09-10T18:49:00.026Z,100078.88
2022-09-10T18:51:28.453Z,100078.63
2022-09-10T18:54:00.312Z,100080.50
2022-09-10T18:56:30.146Z,100080.66
2022-09-10T18:59:03.159Z,100067.41
2022-09-10T19:01:31.174Z,100066.97
2022-09-10T19:03:58.320Z,100060.47
2022-09-10T19:06:36.608Z,100058.59
2022-09-10T19:09:09.496Z,100049.97
2022-09-10T19:11:39.339Z,100060.88
2022-09-10T19:14:08.689Z,100055.81
2022-09-10T19:16:36.219Z,100047.44
2022-09-10T19:19:05.714Z,100050.81
2022-09-10T19:21:35.310Z,100047.69
2022-09-10T19:24:03.705Z,100042.91
2022-09-10T19:26:33.295Z,100051.75
2022-09-10T19:29:01.677Z,100052.59
2022-09-10T19:31:30.078Z,100049.19
2022-09-10T19:34:03.014Z,100051.50
2022-09-10T19:36:31.711Z,100047.53
2022-09-10T19:38:59.586Z,100052.53
2022-09-10T19:41:26.253Z,100057.09
2022-09-10T19:43:53.910Z,100056.59
2022-09-10T19:46:22.561Z,100053.44
2022-09-10T19:48:49.384Z,100050.31
2022-09-10T19:51:20.117Z,100055.75
2022-09-10T19:53:48.149Z,100062.06
2022-09-10T19:56:20.948Z,100057.03
2022-09-10T19:58:49.983Z,100063.47
2022-09-10T20:01:19.794Z,100066.44
2022-09-10T20:03:48.218Z,100065.50
2022-09-10T20:06:18.334Z,100056.91
2022-09-10T20:08:47.239Z,100068.59
2022-09-10T20:11:16.823Z,100064.81
2022-09-10T20:13:45.162Z,100062.31
2022-09-10T20:16:13.000Z,100066.53
2022-09-10T20:18:39.935Z,100066.91
2022-09-10T20:21:21.078Z,100066.84
2022-09-10T20:23:50.987Z,100064.84
2022-09-10T20:26:22.550Z,100069.75
2022-09-10T20:28:55.710Z,100066.50
2022-09-10T20:31:24.003Z,100082.00
2022-09-10T20:33:55.015Z,100074.19
2022-09-10T20:36:22.857Z,100079.00
2022-09-10T20:38:50.546Z,100077.31
2022-09-10T20:41:17.237Z,100075.16
2022-09-10T20:43:43.798Z,100090.66
2022-09-10T20:46:15.927Z,100085.72
2022-09-10T20:48:48.789Z,100082.72
2022-09-10T20:51:20.501Z,100080.78
2022-09-10T20:53:47.967Z,100082.75
2022-09-10T20:56:18.066Z,100080.13
2022-09-10T20:58:45.454Z,100084.47
2022-09-10T21:01:17.414Z,100077.91
2022-09-10T21:03:43.974Z,100081.84
2022-09-10T21:06:11.894Z,100071.34
2022-09-10T21:08:40.585Z,100076.50
2022-09-10T21:11:16.113Z,100076.91
2022-09-10T21:13:45.180Z,100073.91
2022-09-10T21:16:14.639Z,100062.16
2022-09-10T21:18:42.348Z,100060.94
2022-09-10T21:21:14.316Z,100070.78
2022-09-10T21:23:45.625Z,100076.22
2022-09-10T21:26:13.582Z,100076.03
2022-09-10T21:28:41.570Z,100069.75
2022-09-10T21:31:09.525Z,100062.25
2022-09-10T21:33:36.594Z,100063.31
2022-09-10T21:36:06.407Z,100068.53
2022-09-10T21:38:35.138Z,100063.56
2022-09-10T21:41:03.692Z,100065.44
2022-09-10T21:43:37.806Z,100069.66
2022-09-10T21:46:05.630Z,100076.31
2022-09-10T21:48:35.846Z,100087.03
2022-09-10T21:51:05.792Z,100076.16
2022-09-10T21:53:33.494Z,100075.94
2022-09-10T21:56:01.515Z,100077.91
2022-09-10T21:58:30.394Z,100084.09
2022-09-10T22:00:58.560Z,100085.81
2022-09-10T22:03:26.409Z,100100.41
2022-09-10T22:05:52.948Z,100098.91
2022-09-10T22:08:19.484Z,100110.19
2022-09-10T22:10:46.374Z,100105.09
2022-09-10T22:13:12.865Z,100117.78
2022-09-10T22:15:40.503Z,100117.78
2022-09-10T22:18:08.300Z,100123.75
2022-09-10T22:20:36.322Z,100132.25
2022-09-10T22:23:03.855Z,100125.53
2022-09-10T22:25:31.206Z,100133.38
2022-09-10T22:27:58.297Z,100132.06
2022-09-10T22:30:27.810Z,100136.56
2022-09-10T22:32:57.967Z,100134.00
2022-09-10T22:35:26.156Z,100137.94
2022-09-10T22:37:56.745Z,100134.75
2022-09-10T22:40:24.464Z,100130.53
2022-09-10T22:42:51.682Z,100134.63
2022-09-10T22:45:20.749Z,100140.63
2022-09-10T22:47:47.994Z,100134.06
2022-09-10T22:50:15.286Z,100142.94
2022-09-10T22:52:43.657Z,100138.22
2022-09-10T22:55:10.434Z,100135.41
2022-09-10T22:57:38.525Z,100133.41
2022-09-10T23:00:06.122Z,100129.03
2022-09-10T23:02:32.606Z,100131.84
2022-09-10T23:04:59.913Z,100133.22
2022-09-10T23:07:26.410Z,100133.28
2022-09-10T23:09:52.897Z,100140.94
2022-09-10T23:12:22.065Z,100136.84
2022-09-10T23:14:48.619Z,100132.78
2022-09-10T23:17:18.459Z,100133.00
2022-09-10T23:19:47.162Z,100130.31
2022-09-10T23:22:14.031Z,100127.25
2022-09-10T23:24:40.598Z,100135.56
2022-09-10T23:27:07.078Z,100127.97
2022-09-10T23:29:33.581Z,100123.91
2022-09-10T23:32:00.083Z,100115.78
2022-09-10T23:34:26.615Z,100125.47
2022-09-10T23:36:53.806Z,100123.66
2022-09-10T23:39:22.714Z,100127.56
2022-09-10T23:41:50.833Z,100123.84
2022-09-10T23:44:17.674Z,100130.81
2022-09-10T23:46:48.073Z,100127.81
2022-09-10T23:49:14.954Z,100133.56
2022-09-10T23:51:41.698Z,100131.19
2022-09-10T23:54:09.991Z,100128.19
2022-09-10T23:56:37.185Z,100140.03
2022-09-10T23:59:03.833Z,100132.94
